Time;durP1;ratioP1;P1;durP2;ratioP2;P2;SDS_P1;SDS_P2;PMS_P1;PMS_P2;Temp;Humidity;BMP_temperature;BMP_pressure;BME280_temperature;BME280_humidity;BME280_pressure;Samples;Min_cycle;Max_cycle;Signal;HPM_P1;HPM_P2
2021/09/21 00:01:45;;;;;;;0.73;0.40;;;18.20;51.00;;;;;;5004246;28;20100;-65
2021/09/21 00:04:13;;;;;;;2.83;0.50;;;18.30;51.30;;;;;;5007515;28;20095;-68
2021/09/21 00:06:41;;;;;;;1.55;0.55;;;18.30;50.40;;;;;;5007250;28;20049;-66
2021/09/21 00:09:08;;;;;;;1.10;0.70;;;18.30;50.50;;;;;;5007109;28;20014;-69
2021/09/21 00:11:35;;;;;;;0.38;0.32;;;18.30;50.70;;;;;;5004039;28;20022;-65
2021/09/21 00:14:03;;;;;;;1.00;0.40;;;18.40;51.10;;;;;;5007072;28;20476;-65
2021/09/21 00:16:41;;;;;;;1.73;0.47;;;18.40;50.90;;;;;;5008398;28;20029;-62
2021/09/21 00:19:08;;;;;;;1.60;0.40;;;18.40;50.70;;;;;;5005245;28;20022;-68
2021/09/21 00:21:36;;;;;;;0.75;0.60;;;18.40;50.50;;;;;;5003485;28;20108;-65
2021/09/21 00:24:04;;;;;;;1.52;0.60;;;18.40;50.90;;;;;;5007001;28;20034;-67
2021/09/21 00:26:31;;;;;;;1.40;0.47;;;18.30;50.80;;;;;;5008666;28;20498;-69
2021/09/21 00:29:00;;;;;;;2.17;0.60;;;18.40;50.20;;;;;;5007974;28;20050;-68
2021/09/21 00:31:37;;;;;;;1.15;0.30;;;18.40;50.80;;;;;;5011522;28;20101;-72
2021/09/21 00:34:12;;;;;;;1.90;0.45;;;18.40;50.70;;;;;;5010784;28;20038;-73
2021/09/21 00:36:44;;;;;;;3.92;1.10;;;18.40;50.90;;;;;;5009407;28;20049;-67
2021/09/21 00:39:12;;;;;;;1.40;0.45;;;18.40;50.70;;;;;;5008355;28;20122;-68
2021/09/21 00:41:51;;;;;;;10.60;0.90;;;18.40;50.50;;;;;;5008336;28;20030;-68
2021/09/21 00:44:24;;;;;;;4.25;0.45;;;18.30;50.20;;;;;;5009343;28;20030;-68
2021/09/21 00:46:51;;;;;;;4.55;0.63;;;18.30;50.40;;;;;;5009804;28;20044;-68
2021/09/21 00:49:19;;;;;;;4.63;0.77;;;18.30;50.90;;;;;;5010113;28;20026;-66
2021/09/21 00:51:46;;;;;;;1.48;0.60;;;18.30;51.00;;;;;;5009873;28;20046;-67
2021/09/21 00:54:14;;;;;;;3.13;0.60;;;18.30;51.20;;;;;;5004302;28;20030;-65
2021/09/21 00:56:45;;;;;;;3.30;0.60;;;18.30;51.10;;;;;;5008964;28;20026;-61
2021/09/21 00:59:12;;;;;;;3.13;0.60;;;18.20;51.10;;;;;;5011132;28;20030;-64
2021/09/21 01:01:40;;;;;;;1.92;0.47;;;18.30;50.80;;;;;;5010427;28;20034;-63
2021/09/21 01:04:07;;;;;;;2.88;0.70;;;18.30;50.90;;;;;;5007134;28;20144;-66
2021/09/21 01:06:42;;;;;;;2.53;0.60;;;18.40;51.20;;;;;;5010339;28;20566;-56
2021/09/21 01:09:24;;;;;;;1.13;0.40;;;18.40;50.60;;;;;;5010404;28;20022;-63
2021/09/21 01:11:55;;;;;;;4.47;0.50;;;18.40;50.90;;;;;;5010342;28;20076;-68
2021/09/21 01:14:23;;;;;;;1.23;0.55;;;18.40;50.50;;;;;;5006390;28;20045;-63
2021/09/21 01:16:52;;;;;;;2.53;0.40;;;18.50;50.60;;;;;;5010444;28;20125;-59
2021/09/21 01:19:20;;;;;;;5.03;1.15;;;18.60;50.50;;;;;;5008791;28;20030;-59
2021/09/21 01:21:48;;;;;;;3.88;1.13;;;18.80;48.00;;;;;;5009630;28;20030;-56
2021/09/21 01:24:18;;;;;;;3.70;1.15;;;18.80;44.10;;;;;;5005247;28;20480;-54
2021/09/21 01:26:46;;;;;;;3.70;1.00;;;18.90;44.00;;;;;;5008988;28;20499;-60
2021/09/21 01:29:14;;;;;;;6.82;1.02;;;19.00;42.50;;;;;;5009338;28;20503;-60
2021/09/21 01:31:42;;;;;;;5.28;1.23;;;19.10;41.40;;;;;;5009412;28;20410;-58
2021/09/21 01:34:27;;;;;;;7.53;0.95;;;19.10;42.20;;;;;;4987072;28;20107;-59
2021/09/21 01:36:55;;;;;;;5.93;1.75;;;19.20;41.20;;;;;;5007937;28;20469;-58
2021/09/21 01:39:24;;;;;;;3.55;1.23;;;19.30;41.30;;;;;;4991623;28;20074;-57
2021/09/21 01:41:52;;;;;;;5.38;0.90;;;19.30;41.50;;;;;;4991758;28;20022;-58
2021/09/21 01:44:45;;;;;;;3.03;0.82;;;19.40;41.80;;;;;;5004644;28;20025;-58
2021/09/21 01:47:25;;;;;;;3.83;1.30;;;19.40;41.60;;;;;;5004703;28;20038;-59
2021/09/21 01:50:18;;;;;;;4.32;1.10;;;19.50;40.90;;;;;;5007353;28;20493;-63
2021/09/21 01:58:15;;;;;;;3.90;1.65;;;19.50;41.20;;;;;;5012819;28;20026;-68
2021/09/21 02:00:50;;;;;;;3.38;1.05;;;19.30;42.40;;;;;;5012628;28;20029;-64
2021/09/21 02:03:17;;;;;;;3.10;1.40;;;19.30;43.20;;;;;;4994009;28;20026;-69
2021/09/21 02:05:48;;;;;;;5.28;1.38;;;19.40;43.60;;;;;;5010638;28;20117;-71
2021/09/21 02:08:17;;;;;;;6.40;1.17;;;19.40;44.20;;;;;;4994522;28;20030;-67
2021/09/21 02:10:45;;;;;;;4.78;1.23;;;19.50;43.80;;;;;;5012356;28;20056;-71
2021/09/21 02:13:23;;;;;;;4.28;1.30;;;19.50;43.70;;;;;;4993862;28;20030;-64
2021/09/21 02:16:04;;;;;;;3.65;1.23;;;19.50;44.10;;;;;;5012712;28;20053;-60
2021/09/21 02:18:42;;;;;;;2.30;1.00;;;19.60;44.00;;;;;;5011810;28;20033;-64
2021/09/21 02:21:10;;;;;;;3.15;0.80;;;19.60;44.40;;;;;;5012231;28;20030;-63
2021/09/21 02:23:37;;;;;;;4.10;1.02;;;19.60;44.30;;;;;;5012448;28;20034;-68
2021/09/21 02:26:05;;;;;;;8.30;1.02;;;19.60;44.50;;;;;;5011821;28;20101;-67
2021/09/21 02:28:41;;;;;;;2.17;0.95;;;19.60;44.70;;;;;;5011748;28;20057;-69
2021/09/21 02:31:09;;;;;;;3.58;0.93;;;19.70;44.80;;;;;;5012202;28;20040;-66
2021/09/21 02:33:39;;;;;;;5.60;0.85;;;19.70;44.90;;;;;;4993756;28;20073;-71
2021/09/21 02:36:07;;;;;;;3.40;1.10;;;19.70;45.00;;;;;;5012268;28;20556;-69
2021/09/21 02:38:36;;;;;;;3.88;0.73;;;19.70;45.30;;;;;;5012577;28;20525;-67
2021/09/21 02:41:07;;;;;;;7.13;1.05;;;19.70;45.60;;;;;;5012819;28;20025;-65
2021/09/21 02:43:38;;;;;;;2.53;1.10;;;19.70;45.50;;;;;;5012001;28;20032;-65
2021/09/21 02:46:05;;;;;;;2.58;0.98;;;19.70;45.60;;;;;;5011868;28;20476;-71
2021/09/21 02:48:34;;;;;;;3.08;0.82;;;19.70;45.80;;;;;;5011660;28;20034;-69
2021/09/21 02:51:05;;;;;;;4.57;1.00;;;19.80;46.20;;;;;;5011923;28;20405;-66
2021/09/21 02:53:32;;;;;;;5.20;1.08;;;19.80;46.50;;;;;;5011925;28;20385;-69
2021/09/21 02:56:00;;;;;;;4.82;1.27;;;19.80;46.50;;;;;;5011643;28;20022;-65
2021/09/21 02:58:33;;;;;;;4.53;0.80;;;19.80;46.40;;;;;;5011286;28;20033;-68
2021/09/21 03:01:01;;;;;;;3.92;0.95;;;19.80;46.60;;;;;;5011573;28;20033;-65
2021/09/21 03:03:42;;;;;;;3.45;0.90;;;19.80;46.70;;;;;;5012113;28;20472;-64
2021/09/21 03:06:19;;;;;;;5.32;1.50;;;19.80;46.80;;;;;;5011678;28;20018;-71
2021/09/21 03:09:01;;;;;;;2.38;0.82;;;19.90;47.10;;;;;;4994920;28;20034;-63
2021/09/21 03:11:42;;;;;;;3.42;1.00;;;19.90;47.20;;;;;;5012156;28;20030;-67
2021/09/21 03:17:18;;;;;;;4.28;1.05;;;19.80;47.40;;;;;;4970741;28;20030;-70
2021/09/21 03:19:46;;;;;;;2.20;0.98;;;19.90;47.20;;;;;;5011064;28;20029;-68
2021/09/21 03:22:13;;;;;;;8.40;0.98;;;19.90;47.30;;;;;;5011604;28;20026;-67
2021/09/21 03:24:41;;;;;;;3.05;1.13;;;19.90;47.30;;;;;;4993975;28;20033;-73
2021/09/21 03:27:08;;;;;;;9.85;1.20;;;19.90;47.50;;;;;;5011986;28;20024;-72
2021/09/21 03:29:35;;;;;;;1.45;0.73;;;19.90;47.70;;;;;;4994192;28;20025;-71
2021/09/21 03:32:03;;;;;;;3.05;1.25;;;20.00;48.20;;;;;;5011306;28;20078;-66
2021/09/21 03:34:32;;;;;;;3.97;1.02;;;20.00;47.60;;;;;;5011002;28;20030;-74
2021/09/21 03:37:00;;;;;;;2.45;1.05;;;20.00;47.60;;;;;;5011479;28;20025;-71
2021/09/21 03:39:27;;;;;;;5.18;0.95;;;20.00;47.60;;;;;;5011425;28;20055;-70
2021/09/21 03:41:55;;;;;;;2.10;0.77;;;20.00;47.80;;;;;;5011212;28;20410;-72
2021/09/21 03:44:23;;;;;;;3.60;0.98;;;20.00;47.90;;;;;;5011270;28;20052;-65
2021/09/21 03:46:50;;;;;;;2.75;0.70;;;20.10;48.00;;;;;;5011413;28;20150;-68
2021/09/21 03:49:17;;;;;;;3.17;1.00;;;20.10;47.40;;;;;;5011152;28;20105;-67
2021/09/21 03:51:45;;;;;;;2.45;0.98;;;20.10;47.80;;;;;;5011413;28;20041;-63
2021/09/21 03:54:13;;;;;;;1.83;0.60;;;20.10;47.70;;;;;;4993538;28;20030;-67
2021/09/21 03:56:46;;;;;;;3.50;1.20;;;20.10;47.90;;;;;;5011140;28;20161;-71
2021/09/21 03:59:14;;;;;;;2.92;0.73;;;20.10;48.10;;;;;;5010848;28;20030;-71
2021/09/21 04:01:41;;;;;;;2.33;0.80;;;20.10;48.00;;;;;;5010805;28;20018;-71
2021/09/21 04:04:09;;;;;;;3.17;1.27;;;20.10;48.90;;;;;;4993680;28;20026;-68
2021/09/21 04:06:36;;;;;;;3.13;1.20;;;20.10;48.90;;;;;;4993312;28;20073;-71
2021/09/21 04:09:04;;;;;;;2.90;1.40;;;20.10;49.20;;;;;;5010682;28;20037;-68
2021/09/21 04:11:31;;;;;;;4.65;1.00;;;20.10;49.60;;;;;;5010723;28;20488;-68
2021/09/21 04:13:59;;;;;;;8.60;1.15;;;20.10;49.60;;;;;;5010169;28;20036;-68
2021/09/21 04:16:28;;;;;;;3.78;1.08;;;20.10;49.80;;;;;;5010947;28;20018;-69
2021/09/21 04:18:57;;;;;;;3.60;1.25;;;20.10;49.80;;;;;;5011081;28;20101;-72
2021/09/21 04:21:26;;;;;;;3.33;0.90;;;20.10;49.50;;;;;;5011459;28;20022;-73
2021/09/21 04:23:54;;;;;;;3.25;1.02;;;20.10;49.50;;;;;;5011622;28;20392;-67
2021/09/21 04:26:21;;;;;;;3.55;0.98;;;20.10;49.10;;;;;;5011907;28;20048;-68
2021/09/21 04:28:49;;;;;;;2.20;0.98;;;20.10;49.20;;;;;;5009881;28;20034;-66
2021/09/21 04:31:26;;;;;;;4.07;1.17;;;20.00;49.10;;;;;;4993111;28;20018;-63
2021/09/21 04:33:55;;;;;;;3.80;1.08;;;20.00;49.20;;;;;;5010462;28;20083;-66
2021/09/21 04:36:23;;;;;;;1.42;0.90;;;20.00;49.20;;;;;;5010504;28;20026;-67
2021/09/21 04:38:50;;;;;;;5.68;1.40;;;20.00;49.40;;;;;;5010651;28;20030;-72
2021/09/21 04:41:18;;;;;;;1.00;0.63;;;20.00;49.20;;;;;;5010471;28;20087;-67
2021/09/21 04:43:45;;;;;;;5.85;1.25;;;19.90;49.30;;;;;;4992938;28;20030;-73
2021/09/21 04:46:13;;;;;;;3.60;1.10;;;19.90;48.90;;;;;;5010954;28;20064;-68
2021/09/21 04:48:41;;;;;;;6.00;1.42;;;20.00;49.30;;;;;;5010654;28;20030;-69
2021/09/21 04:51:09;;;;;;;5.18;1.13;;;19.90;49.50;;;;;;5010283;28;20552;-71
2021/09/21 04:53:36;;;;;;;4.97;1.08;;;19.90;49.80;;;;;;5007505;28;20138;-75
2021/09/21 04:56:04;;;;;;;4.05;0.90;;;19.90;49.90;;;;;;5009775;28;20113;-72
2021/09/21 04:58:32;;;;;;;3.28;0.80;;;19.90;49.90;;;;;;5009995;28;20380;-69
2021/09/21 05:00:59;;;;;;;4.07;1.63;;;19.80;50.00;;;;;;5009854;28;20083;-70
2021/09/21 05:03:26;;;;;;;6.68;0.90;;;19.80;49.80;;;;;;5010367;28;20053;-68
2021/09/21 05:05:54;;;;;;;5.28;1.50;;;19.80;49.90;;;;;;5010052;28;20041;-72
2021/09/21 05:08:21;;;;;;;2.30;0.75;;;19.80;50.00;;;;;;5009809;28;20158;-69
2021/09/21 05:10:49;;;;;;;3.42;1.05;;;19.80;50.10;;;;;;5010724;28;20430;-72
2021/09/21 05:13:16;;;;;;;4.75;1.30;;;19.80;50.10;;;;;;5010015;28;20117;-71
2021/09/21 05:15:45;;;;;;;2.97;1.02;;;19.80;50.10;;;;;;5010044;28;20022;-70
2021/09/21 05:18:13;;;;;;;3.13;0.70;;;19.80;50.10;;;;;;5009352;28;20044;-69
2021/09/21 05:20:40;;;;;;;6.85;1.02;;;19.70;50.10;;;;;;5008530;28;20079;-72
2021/09/21 05:23:07;;;;;;;2.80;0.80;;;19.70;50.30;;;;;;5009804;28;20362;-68
2021/09/21 05:25:35;;;;;;;2.17;0.90;;;19.70;50.20;;;;;;5010008;28;20117;-75
2021/09/21 05:28:04;;;;;;;8.25;1.30;;;19.70;50.40;;;;;;5009943;28;20443;-70
2021/09/21 05:30:32;;;;;;;2.88;1.35;;;19.70;50.20;;;;;;5008319;28;20098;-65
2021/09/21 05:33:00;;;;;;;7.70;1.20;;;19.70;50.30;;;;;;5009441;28;20034;-74
2021/09/21 05:35:27;;;;;;;2.85;0.88;;;19.70;50.20;;;;;;5009233;28;20149;-70
2021/09/21 05:37:55;;;;;;;2.67;0.90;;;19.70;50.30;;;;;;5009825;28;20037;-69
2021/09/21 05:40:22;;;;;;;3.22;1.10;;;19.70;50.20;;;;;;5012092;28;20377;-67
2021/09/21 05:42:50;;;;;;;3.45;0.90;;;19.60;50.20;;;;;;5013130;28;20111;-64
2021/09/21 05:45:17;;;;;;;3.00;1.10;;;19.70;50.10;;;;;;5011548;28;20212;-68
2021/09/21 05:47:46;;;;;;;3.65;1.45;;;19.70;50.40;;;;;;5011660;28;20030;-68
2021/09/21 05:50:14;;;;;;;3.85;1.10;;;19.60;50.30;;;;;;5012279;28;20125;-69
2021/09/21 05:52:44;;;;;;;4.50;1.25;;;19.60;50.40;;;;;;5011699;28;20026;-68
2021/09/21 05:55:12;;;;;;;3.45;0.98;;;19.60;50.20;;;;;;5012917;28;20026;-70
2021/09/21 05:57:40;;;;;;;4.45;1.15;;;19.60;50.40;;;;;;5012928;28;20022;-69
2021/09/21 06:00:08;;;;;;;4.68;0.98;;;19.60;50.50;;;;;;5012699;28;20037;-71
2021/09/21 06:02:36;;;;;;;2.53;0.75;;;19.60;50.50;;;;;;5001820;28;20093;-66
2021/09/21 06:05:04;;;;;;;5.95;1.08;;;19.60;50.70;;;;;;5004297;28;20044;-69
2021/09/21 06:07:31;;;;;;;4.40;1.20;;;19.60;50.60;;;;;;4991357;28;20095;-67
2021/09/21 06:09:58;;;;;;;3.80;1.30;;;19.60;50.40;;;;;;5008827;28;20057;-68
2021/09/21 06:12:27;;;;;;;8.15;1.20;;;19.60;50.40;;;;;;5006223;28;20018;-63
2021/09/21 06:14:54;;;;;;;5.80;1.70;;;19.60;50.40;;;;;;5009482;28;20120;-68
2021/09/21 06:17:22;;;;;;;4.68;1.15;;;19.60;50.50;;;;;;4991485;28;20026;-69
2021/09/21 06:19:49;;;;;;;4.03;1.45;;;19.60;50.50;;;;;;5008384;28;20033;-67
2021/09/21 06:22:17;;;;;;;4.93;1.40;;;19.60;50.80;;;;;;5005259;28;20022;-73
2021/09/21 06:24:44;;;;;;;6.75;1.67;;;19.60;50.80;;;;;;5008429;28;20481;-66
2021/09/21 06:27:12;;;;;;;5.75;2.03;;;19.60;51.30;;;;;;5008689;28;20068;-69
2021/09/21 06:29:40;;;;;;;5.55;1.40;;;19.60;51.20;;;;;;5008710;28;20026;-67
2021/09/21 06:32:13;;;;;;;6.20;1.33;;;19.60;51.00;;;;;;5005934;28;20038;-75
2021/09/21 06:34:41;;;;;;;4.28;1.67;;;19.60;51.00;;;;;;5008089;28;20042;-65
2021/09/21 06:37:09;;;;;;;7.18;1.55;;;19.50;51.10;;;;;;5009034;28;20018;-64
2021/09/21 06:39:37;;;;;;;4.60;1.52;;;19.60;51.10;;;;;;5010148;28;20040;-73
2021/09/21 06:42:04;;;;;;;6.00;1.73;;;19.50;51.10;;;;;;5007085;28;20026;-68
2021/09/21 06:44:32;;;;;;;3.97;1.48;;;19.50;51.10;;;;;;5009353;28;20061;-69
2021/09/21 06:46:59;;;;;;;7.22;1.40;;;19.50;51.40;;;;;;5010093;28;20115;-71
2021/09/21 06:49:28;;;;;;;4.07;1.20;;;19.40;51.70;;;;;;5010138;28;20079;-67
2021/09/21 06:51:55;;;;;;;5.68;1.50;;;19.40;51.60;;;;;;5005244;28;20033;-65
2021/09/21 06:54:23;;;;;;;5.38;1.30;;;19.30;51.70;;;;;;5008983;28;20041;-70
2021/09/21 06:56:50;;;;;;;4.53;1.23;;;19.30;51.70;;;;;;5009410;28;20026;-71
2021/09/21 06:59:18;;;;;;;7.00;1.52;;;19.30;51.90;;;;;;5009304;28;20542;-69
2021/09/21 07:01:51;;;;;;;3.63;1.40;;;19.30;52.00;;;;;;5007215;28;20026;-75
2021/09/21 07:04:19;;;;;;;4.25;1.38;;;19.20;51.80;;;;;;5007921;28;20044;-72
2021/09/21 07:06:46;;;;;;;4.28;1.60;;;19.20;52.00;;;;;;5009034;28;20091;-70
2021/09/21 07:09:14;;;;;;;5.45;1.63;;;19.20;52.20;;;;;;5008888;28;20101;-70
2021/09/21 07:11:41;;;;;;;2.80;1.05;;;19.10;52.20;;;;;;5007986;28;20022;-70
2021/09/21 07:14:10;;;;;;;3.28;1.25;;;19.10;52.30;;;;;;5006413;28;20033;-67
2021/09/21 07:16:38;;;;;;;4.82;1.45;;;19.10;52.40;;;;;;5008367;28;20056;-68
2021/09/21 07:19:06;;;;;;;3.53;1.30;;;19.00;52.30;;;;;;5008649;28;20026;-68
2021/09/21 07:21:33;;;;;;;6.85;1.33;;;19.00;52.50;;;;;;5007640;28;20087;-70
2021/09/21 07:24:04;;;;;;;5.32;1.70;;;19.00;52.50;;;;;;5005838;28;20109;-71
2021/09/21 07:29:58;;;;;;;8.75;1.42;;;18.90;52.80;;;;;;5007904;28;20095;-65
2021/09/21 07:32:26;;;;;;;6.18;1.60;;;18.90;52.80;;;;;;5005307;28;20025;-67
2021/09/21 07:34:53;;;;;;;3.72;1.50;;;18.80;52.70;;;;;;5008309;28;20040;-67
2021/09/21 07:37:21;;;;;;;4.47;1.20;;;18.80;52.90;;;;;;5007099;28;20050;-62
2021/09/21 07:39:49;;;;;;;4.32;1.48;;;18.80;52.90;;;;;;5007720;28;20057;-65
2021/09/21 07:42:18;;;;;;;7.07;1.65;;;18.80;53.00;;;;;;5004447;28;20111;-64
2021/09/21 07:44:49;;;;;;;3.15;1.10;;;18.80;53.00;;;;;;5006517;28;20032;-67
2021/09/21 07:47:20;;;;;;;7.47;1.48;;;18.70;53.10;;;;;;5005568;28;20049;-68
2021/09/21 07:49:51;;;;;;;9.38;2.08;;;18.70;53.10;;;;;;5006798;28;20046;-70
2021/09/21 07:52:31;;;;;;;3.38;1.70;;;18.60;53.30;;;;;;5003633;28;20034;-67
2021/09/21 07:55:01;;;;;;;3.33;1.23;;;18.60;53.40;;;;;;5009022;28;20170;-68
2021/09/21 07:57:33;;;;;;;5.45;1.42;;;18.60;53.50;;;;;;5007659;28;20075;-68
2021/09/21 08:00:13;;;;;;;4.78;1.63;;;18.60;53.50;;;;;;5005086;28;20488;-71
2021/09/21 08:02:43;;;;;;;6.28;1.77;;;18.60;53.70;;;;;;5002419;28;20022;-67
2021/09/21 08:05:19;;;;;;;2.67;1.63;;;18.50;53.80;;;;;;4989561;28;20365;-70
2021/09/21 08:07:54;;;;;;;2.75;1.00;;;18.50;53.70;;;;;;5006930;28;20054;-69
2021/09/21 08:10:24;;;;;;;4.10;1.40;;;18.50;53.80;;;;;;5007385;28;20022;-66
2021/09/21 08:13:01;;;;;;;3.72;1.65;;;18.40;53.80;;;;;;5000885;28;20030;-68
2021/09/21 08:15:30;;;;;;;;;;;18.40;53.80;;;;;;5009480;28;20075;-63
2021/09/21 08:18:01;;;;;;;3.88;1.10;;;18.40;53.90;;;;;;5001078;28;20045;-64
2021/09/21 08:20:48;;;;;;;2.58;1.10;;;18.30;54.00;;;;;;5007892;28;20042;-66
2021/09/21 08:23:18;;;;;;;5.45;1.42;;;18.30;54.00;;;;;;4990399;28;20122;-66
2021/09/21 08:25:55;;;;;;;5.07;1.73;;;18.30;54.10;;;;;;4973721;28;20060;-73
2021/09/21 08:28:29;;;;;;;4.10;1.42;;;18.30;54.10;;;;;;4977297;28;20388;-67
2021/09/21 08:31:08;;;;;;;4.55;1.42;;;18.20;54.10;;;;;;5007126;28;20183;-71
2021/09/21 08:33:42;;;;;;;3.60;1.17;;;18.20;54.20;;;;;;5020861;28;20508;-64
2021/09/21 08:36:23;;;;;;;3.78;1.40;;;18.20;54.20;;;;;;4990238;28;20117;-65
2021/09/21 08:38:51;;;;;;;5.25;1.33;;;18.20;54.20;;;;;;5005935;28;20033;-60
2021/09/21 08:41:30;;;;;;;6.80;1.60;;;18.10;54.20;;;;;;4987440;28;20026;-63
2021/09/21 08:44:13;;;;;;;5.50;1.52;;;18.10;54.20;;;;;;4983390;28;20547;-66
2021/09/21 08:47:00;;;;;;;3.25;1.33;;;18.10;54.20;;;;;;4988274;28;20057;-71
2021/09/21 08:49:38;;;;;;;5.68;1.35;;;18.10;54.20;;;;;;5005882;28;20040;-68
2021/09/21 08:52:09;;;;;;;4.70;1.50;;;18.10;54.30;;;;;;5006112;28;20481;-70
2021/09/21 08:58:14;;;;;;;5.28;1.25;;;18.00;54.30;;;;;;4968288;28;20069;-66
2021/09/21 09:00:42;;;;;;;4.15;1.50;;;18.00;54.30;;;;;;5007089;28;20045;-66
2021/09/21 09:03:14;;;;;;;5.22;1.67;;;18.00;54.30;;;;;;5004574;28;20117;-65
2021/09/21 09:05:47;;;;;;;4.57;1.65;;;18.00;54.30;;;;;;5001557;28;20022;-64
2021/09/21 09:08:27;;;;;;;3.92;1.40;;;17.90;54.30;;;;;;5008163;28;20030;-71
2021/09/21 09:11:09;;;;;;;3.35;1.17;;;17.90;54.30;;;;;;5007869;28;20033;-67
2021/09/21 09:13:36;;;;;;;4.75;1.40;;;17.90;54.30;;;;;;5001550;28;20030;-64
2021/09/21 09:19:30;;;;;;;4.70;1.50;;;17.90;54.50;;;;;;4965577;28;20124;-68
2021/09/21 09:22:14;;;;;;;3.65;1.15;;;17.90;54.50;;;;;;5003683;28;20042;-69
2021/09/21 09:25:07;;;;;;;4.20;1.48;;;17.90;54.60;;;;;;5006008;28;20121;-70
2021/09/21 09:27:46;;;;;;;4.88;1.20;;;17.80;54.60;;;;;;5009895;28;20018;-67
2021/09/21 09:30:23;;;;;;;5.43;1.50;;;17.80;54.70;;;;;;5009796;28;20037;-62
2021/09/21 09:32:57;;;;;;;3.92;1.60;;;17.80;54.70;;;;;;5007325;28;20030;-70
2021/09/21 09:35:34;;;;;;;4.80;1.38;;;17.80;54.80;;;;;;5006496;28;20026;-65
2021/09/21 09:38:06;;;;;;;7.60;1.83;;;17.80;54.80;;;;;;5010263;28;20393;-62
2021/09/21 09:40:40;;;;;;;3.75;1.30;;;17.80;54.90;;;;;;5010403;28;20032;-67
2021/09/21 09:43:08;;;;;;;4.30;1.52;;;17.80;54.80;;;;;;5009457;28;20605;-63
2021/09/21 09:45:42;;;;;;;3.25;1.52;;;17.80;54.80;;;;;;5005934;28;20109;-67
2021/09/21 09:48:17;;;;;;;5.75;1.75;;;17.80;54.80;;;;;;5008756;28;20444;-67
2021/09/21 09:50:47;;;;;;;4.10;1.52;;;17.80;54.80;;;;;;5008461;28;20689;-65
2021/09/21 09:53:21;;;;;;;5.35;1.67;;;17.80;54.70;;;;;;5004955;28;20061;-62
2021/09/21 09:55:59;;;;;;;4.80;1.48;;;17.80;54.70;;;;;;5004932;28;20272;-71
2021/09/21 09:58:30;;;;;;;5.03;1.83;;;17.80;54.80;;;;;;5007111;28;20030;-67
2021/09/21 10:00:57;;;;;;;4.72;1.60;;;17.80;54.80;;;;;;5009300;28;20116;-63
2021/09/21 10:03:26;;;;;;;5.18;1.42;;;17.80;54.90;;;;;;5007656;28;20120;-68
2021/09/21 10:05:54;;;;;;;3.50;1.52;;;17.80;54.80;;;;;;5007332;28;20026;-68
2021/09/21 10:08:23;;;;;;;4.95;1.70;;;17.80;54.90;;;;;;5010176;28;20022;-63
2021/09/21 10:10:51;;;;;;;4.93;1.67;;;17.80;54.90;;;;;;5008194;28;20044;-65
2021/09/21 10:13:19;;;;;;;3.95;1.40;;;17.80;55.00;;;;;;5008933;28;20038;-65
2021/09/21 10:15:50;;;;;;;3.90;1.70;;;17.80;55.00;;;;;;4988146;28;20033;-63
2021/09/21 10:18:22;;;;;;;5.13;1.63;;;17.80;55.00;;;;;;5008476;28;20040;-63
2021/09/21 10:21:03;;;;;;;4.25;1.45;;;17.80;54.90;;;;;;5009963;28;20480;-68
2021/09/21 10:23:40;;;;;;;6.05;1.88;;;17.80;55.00;;;;;;5004874;28;20034;-69
2021/09/21 10:26:15;;;;;;;4.75;1.65;;;17.80;55.80;;;;;;5007634;28;20026;-66
2021/09/21 10:28:50;;;;;;;5.72;1.95;;;17.80;55.20;;;;;;5008886;28;20029;-65
2021/09/21 10:31:19;;;;;;;3.75;1.45;;;17.80;55.30;;;;;;5007357;28;20030;-65
2021/09/21 10:33:48;;;;;;;5.22;1.85;;;17.80;55.10;;;;;;5002801;28;20073;-70
2021/09/21 10:36:29;;;;;;;4.63;1.80;;;17.70;55.00;;;;;;4990033;28;20087;-67
2021/09/21 10:39:16;;;;;;;5.97;1.80;;;17.70;55.20;;;;;;5008597;28;20118;-69
2021/09/21 10:41:47;;;;;;;5.90;1.75;;;17.80;55.10;;;;;;5008719;28;20030;-72
2021/09/21 10:44:18;;;;;;;4.20;1.70;;;17.70;55.30;;;;;;5003864;28;20426;-68
2021/09/21 10:46:51;;;;;;;5.53;1.87;;;17.70;55.20;;;;;;5006849;28;20026;-68
2021/09/21 10:49:40;;;;;;;6.95;1.83;;;17.80;55.30;;;;;;5007100;28;20014;-68
2021/09/21 10:52:10;;;;;;;4.10;1.63;;;17.80;55.30;;;;;;5008079;28;20248;-67
2021/09/21 10:54:52;;;;;;;3.35;1.50;;;17.70;55.40;;;;;;5004265;28;20038;-69
2021/09/21 10:57:31;;;;;;;4.10;1.42;;;17.70;55.50;;;;;;5009055;28;20079;-68
2021/09/21 11:00:01;;;;;;;4.63;2.20;;;17.80;55.60;;;;;;5008875;28;20036;-68
2021/09/21 11:02:36;;;;;;;6.00;1.70;;;17.70;55.60;;;;;;5007844;28;20030;-64
2021/09/21 11:05:06;;;;;;;7.05;2.03;;;17.70;55.60;;;;;;5003541;28;20022;-64
2021/09/21 11:07:36;;;;;;;5.30;1.77;;;17.70;55.70;;;;;;5008888;28;20026;-64
2021/09/21 11:10:07;;;;;;;5.38;1.85;;;17.70;55.80;;;;;;4990679;28;20503;-67
2021/09/21 11:12:34;;;;;;;3.88;1.55;;;17.70;55.80;;;;;;5009191;28;20069;-70
2021/09/21 11:15:09;;;;;;;5.65;1.90;;;17.70;55.70;;;;;;5004216;28;20125;-67
2021/09/21 11:17:37;;;;;;;6.15;1.40;;;17.60;55.60;;;;;;5007717;28;20018;-64
2021/09/21 11:20:05;;;;;;;7.25;1.90;;;17.60;55.70;;;;;;4991587;28;20396;-69
2021/09/21 11:22:33;;;;;;;6.85;1.90;;;17.70;55.80;;;;;;5008761;28;20036;-67
2021/09/21 11:25:09;;;;;;;5.05;1.50;;;17.70;55.80;;;;;;5002810;28;20025;-64
2021/09/21 11:27:41;;;;;;;4.32;1.52;;;17.60;55.80;;;;;;5008804;28;20021;-64
2021/09/21 11:30:14;;;;;;;8.73;2.00;;;17.70;55.80;;;;;;5009085;28;20030;-62
2021/09/21 11:32:43;;;;;;;6.38;1.83;;;17.60;55.70;;;;;;5008379;28;20053;-65
2021/09/21 11:35:17;;;;;;;4.00;1.60;;;17.70;55.80;;;;;;5004195;28;20038;-67
2021/09/21 11:37:52;;;;;;;7.45;1.80;;;17.60;55.80;;;;;;5007644;28;20380;-64
2021/09/21 11:40:31;;;;;;;5.85;2.40;;;17.70;55.90;;;;;;5005476;28;20033;-65
2021/09/21 11:43:00;;;;;;;4.38;1.75;;;17.70;56.00;;;;;;5007420;28;20422;-66
2021/09/21 11:45:28;;;;;;;3.55;1.80;;;17.70;55.80;;;;;;4990569;28;20038;-61
2021/09/21 11:47:56;;;;;;;4.13;1.23;;;17.70;55.90;;;;;;4992653;28;20101;-61
2021/09/21 11:50:32;;;;;;;6.20;1.48;;;17.60;55.70;;;;;;5009461;28;20491;-65
2021/09/21 11:53:04;;;;;;;5.55;1.63;;;17.70;55.80;;;;;;5010433;28;20029;-62
2021/09/21 11:55:34;;;;;;;4.07;1.40;;;17.70;55.80;;;;;;4993073;28;20452;-63
2021/09/21 11:58:38;;;;;;;5.05;1.67;;;17.60;55.70;;;;;;5010664;28;20026;-68
2021/09/21 12:01:06;;;;;;;5.15;1.38;;;17.70;55.80;;;;;;5001211;28;20138;-66
2021/09/21 12:03:34;;;;;;;4.22;2.10;;;17.60;56.00;;;;;;5008247;28;20078;-68
2021/09/21 12:06:09;;;;;;;6.00;1.90;;;17.60;56.00;;;;;;4991582;28;20045;-67
2021/09/21 12:08:48;;;;;;;4.28;1.58;;;17.60;56.10;;;;;;4988927;28;20823;-66
2021/09/21 12:11:19;;;;;;;4.47;1.67;;;17.50;56.10;;;;;;5007912;28;20465;-64
2021/09/21 12:13:50;;;;;;;6.13;1.90;;;17.60;56.20;;;;;;5006039;28;20113;-65
2021/09/21 12:16:20;;;;;;;5.03;1.73;;;17.60;56.30;;;;;;5007696;28;20030;-60
2021/09/21 12:18:50;;;;;;;5.15;1.90;;;17.60;56.30;;;;;;5003219;28;20042;-63
2021/09/21 12:21:22;;;;;;;6.05;1.75;;;17.50;56.30;;;;;;5006057;28;20022;-62
2021/09/21 12:23:52;;;;;;;6.95;2.17;;;17.60;56.90;;;;;;5007505;28;20026;-64
2021/09/21 12:26:26;;;;;;;7.00;1.85;;;17.50;56.20;;;;;;5007804;28;20022;-59
2021/09/21 12:28:54;;;;;;;9.07;1.85;;;17.50;56.30;;;;;;5004121;28;20032;-64
2021/09/21 12:31:29;;;;;;;2.50;1.48;;;17.50;56.40;;;;;;5007391;28;20025;-61
2021/09/21 12:33:58;;;;;;;4.07;1.52;;;17.50;56.40;;;;;;5008819;28;20385;-63
2021/09/21 12:36:41;;;;;;;4.80;1.50;;;17.50;56.60;;;;;;5006970;28;20029;-60
2021/09/21 12:39:19;;;;;;;5.72;1.40;;;17.50;56.60;;;;;;4988825;28;20058;-63
2021/09/21 12:41:55;;;;;;;3.45;1.38;;;17.50;56.80;;;;;;5005364;28;20041;-63
2021/09/21 12:44:24;;;;;;;12.10;1.50;;;17.50;56.80;;;;;;5000841;28;20030;-60
2021/09/21 12:46:56;;;;;;;5.55;1.70;;;17.40;56.80;;;;;;4988142;28;20041;-60
2021/09/21 12:49:25;;;;;;;4.75;1.73;;;17.40;56.80;;;;;;5005116;28;20461;-61
2021/09/21 12:51:55;;;;;;;5.65;1.30;;;17.30;57.10;;;;;;5009664;28;20416;-61
2021/09/21 12:54:25;;;;;;;6.85;2.40;;;17.40;57.20;;;;;;5009361;28;20033;-69
2021/09/21 12:56:57;;;;;;;4.90;1.60;;;17.30;57.20;;;;;;5009338;28;20106;-71
2021/09/21 12:59:26;;;;;;;4.80;1.95;;;17.30;57.20;;;;;;5004673;28;20053;-59
2021/09/21 13:01:54;;;;;;;6.28;1.70;;;17.30;57.40;;;;;;5009617;28;20105;-66
2021/09/21 13:04:23;;;;;;;4.38;1.40;;;17.30;57.40;;;;;;5009609;28;20118;-62
2021/09/21 13:06:53;;;;;;;6.40;1.52;;;17.30;57.60;;;;;;5010015;28;20034;-60
2021/09/21 13:09:20;;;;;;;4.95;1.95;;;17.20;57.50;;;;;;4987635;28;20026;-64
2021/09/21 13:11:48;;;;;;;4.60;1.90;;;17.20;57.60;;;;;;5008966;28;20022;-59
2021/09/21 13:14:15;;;;;;;4.05;1.83;;;17.20;57.60;;;;;;5009550;28;20048;-63
2021/09/21 13:16:44;;;;;;;3.42;1.55;;;17.20;57.70;;;;;;5009580;28;20029;-65
2021/09/21 13:19:11;;;;;;;2.72;1.20;;;17.20;57.60;;;;;;5005160;28;20033;-65
2021/09/21 13:21:39;;;;;;;4.32;1.70;;;17.20;57.80;;;;;;5007794;28;20032;-62
2021/09/21 13:24:06;;;;;;;3.97;1.40;;;17.20;57.80;;;;;;5008459;28;20083;-67
2021/09/21 13:26:33;;;;;;;6.07;1.65;;;17.10;58.10;;;;;;5010458;28;20529;-66